createdAt,value
2022-11-06T00:01:24.595Z,7.81
2022-11-06T00:03:01.172Z,7.82
2022-11-06T00:04:33.219Z,7.78
2022-11-06T00:06:31.272Z,7.87
2022-11-06T00:08:03.439Z,7.84
2022-11-06T00:09:35.696Z,7.83
2022-11-06T00:11:17.070Z,7.83
2022-11-06T00:12:49.294Z,7.76
2022-11-06T00:14:21.321Z,7.76
2022-11-06T00:15:53.511Z,7.70
2022-11-06T00:17:25.554Z,7.73
2022-11-06T00:19:00.827Z,7.80
2022-11-06T00:20:32.899Z,7.81
2022-11-06T00:22:05.190Z,7.81
2022-11-06T00:23:37.473Z,7.77
2022-11-06T00:25:10.441Z,7.77
2022-11-06T00:26:42.991Z,7.75
2022-11-06T00:28:15.330Z,7.78
2022-11-06T00:29:47.526Z,7.79
2022-11-06T00:31:22.577Z,7.80
2022-11-06T00:34:26.446Z,7.68
2022-11-06T00:35:58.759Z,7.67
2022-11-06T00:37:30.802Z,7.62
2022-11-06T00:39:03.544Z,7.53
2022-11-06T00:40:35.499Z,7.49
2022-11-06T00:42:07.442Z,7.46
2022-11-06T00:43:39.704Z,7.46
2022-11-06T00:45:11.735Z,7.47
2022-11-06T00:46:43.755Z,7.50
2022-11-06T00:48:15.976Z,7.49
2022-11-06T00:49:48.042Z,7.47
2022-11-06T00:51:37.237Z,7.57
2022-11-06T00:53:09.182Z,7.52
2022-11-06T00:54:41.252Z,7.52
2022-11-06T00:56:18.595Z,7.55
2022-11-06T00:57:50.634Z,7.53
2022-11-06T00:59:22.609Z,7.47
2022-11-06T01:00:54.585Z,7.54
2022-11-06T01:04:06.740Z,7.59
2022-11-06T01:05:38.982Z,7.56
2022-11-06T01:07:10.955Z,7.57
2022-11-06T01:08:43.707Z,7.63
2022-11-06T01:10:15.753Z,7.59
2022-11-06T01:13:50.351Z,7.62
2022-11-06T01:15:22.355Z,7.57
2022-11-06T01:16:54.534Z,7.53
2022-11-06T01:18:29.763Z,7.50
2022-11-06T01:20:02.013Z,7.44
2022-11-06T01:21:37.377Z,7.49
2022-11-06T01:23:09.381Z,7.45
2022-11-06T01:24:42.348Z,7.45
2022-11-06T01:26:21.178Z,7.44
2022-11-06T01:28:01.043Z,7.42
2022-11-06T01:29:33.139Z,7.48
2022-11-06T01:31:10.665Z,7.55
2022-11-06T01:32:42.646Z,7.55
2022-11-06T01:34:14.654Z,7.53
2022-11-06T01:35:48.320Z,7.59
2022-11-06T01:37:20.357Z,7.54
2022-11-06T01:38:54.234Z,7.59
2022-11-06T01:40:26.278Z,7.53
2022-11-06T01:41:58.313Z,7.47
2022-11-06T01:43:51.295Z,7.47
2022-11-06T01:45:34.755Z,7.37
2022-11-06T01:47:23.831Z,7.36
2022-11-06T01:49:13.622Z,7.36
2022-11-06T01:50:48.512Z,7.39
2022-11-06T01:52:21.146Z,7.40
2022-11-06T01:53:54.051Z,7.39
2022-11-06T01:55:30.788Z,7.39
2022-11-06T01:57:04.630Z,7.38
2022-11-06T01:58:40.950Z,7.34
2022-11-06T02:00:16.372Z,7.27
2022-11-06T02:01:51.305Z,7.26
2022-11-06T02:03:23.514Z,7.22
2022-11-06T02:04:55.581Z,7.15
2022-11-06T02:06:27.767Z,7.22
2022-11-06T02:08:00.797Z,7.26
2022-11-06T02:09:34.020Z,7.28
2022-11-06T02:11:05.986Z,7.22
2022-11-06T02:13:06.578Z,7.28
2022-11-06T02:14:55.175Z,7.33
2022-11-06T02:16:50.735Z,7.34
2022-11-06T02:18:48.416Z,7.29
2022-11-06T02:20:29.233Z,7.24
2022-11-06T02:22:06.410Z,7.20
2022-11-06T02:24:23.179Z,7.18
2022-11-06T02:26:00.875Z,7.16
2022-11-06T02:27:41.884Z,7.20
2022-11-06T02:29:21.933Z,7.20
2022-11-06T02:30:55.564Z,7.21
2022-11-06T02:32:42.463Z,7.26
2022-11-06T02:34:16.216Z,7.22
2022-11-06T02:36:07.059Z,7.20
2022-11-06T02:37:39.959Z,7.11
2022-11-06T02:39:14.801Z,7.13
2022-11-06T02:41:00.984Z,7.17
2022-11-06T02:42:34.420Z,7.23
2022-11-06T02:44:10.142Z,7.32
2022-11-06T02:45:48.579Z,7.33
2022-11-06T02:47:21.798Z,7.31
2022-11-06T02:48:59.674Z,7.34
2022-11-06T02:50:34.900Z,7.34
2022-11-06T02:52:17.093Z,7.37
2022-11-06T02:53:49.411Z,7.34
2022-11-06T02:55:33.150Z,7.40
2022-11-06T02:57:08.843Z,7.39
2022-11-06T02:58:54.007Z,7.34
2022-11-06T03:02:03.856Z,7.27
2022-11-06T03:03:41.524Z,7.15
2022-11-06T03:05:20.904Z,7.11
2022-11-06T03:06:58.190Z,7.04
2022-11-06T03:08:53.288Z,6.99
2022-11-06T03:10:30.301Z,6.95
2022-11-06T03:12:17.098Z,6.99
2022-11-06T03:13:57.292Z,6.99
2022-11-06T03:15:39.810Z,7.06
2022-11-06T03:17:49.859Z,7.08
2022-11-06T03:19:30.656Z,7.08
2022-11-06T03:21:18.467Z,7.11
2022-11-06T03:22:57.637Z,7.14
2022-11-06T03:24:51.615Z,7.16
2022-11-06T03:26:50.697Z,7.17
2022-11-06T03:28:33.186Z,7.16
2022-11-06T03:30:11.361Z,7.14
2022-11-06T03:31:59.415Z,7.18
2022-11-06T03:33:42.246Z,7.15
2022-11-06T03:35:28.288Z,7.10
2022-11-06T03:37:05.641Z,7.05
2022-11-06T03:38:43.510Z,7.08
2022-11-06T03:40:17.756Z,7.12
2022-11-06T03:41:57.776Z,7.17
2022-11-06T03:43:34.920Z,7.19
2022-11-06T03:45:12.585Z,7.16
2022-11-06T03:46:48.457Z,7.19
2022-11-06T03:48:26.465Z,7.26
2022-11-06T03:50:03.882Z,7.27
2022-11-06T03:51:46.267Z,7.28
2022-11-06T03:53:26.430Z,7.24
2022-11-06T03:55:01.742Z,7.25
2022-11-06T03:56:46.533Z,7.26
2022-11-06T03:58:22.330Z,7.28
2022-11-06T03:59:58.377Z,7.30
2022-11-06T04:01:38.428Z,7.25
2022-11-06T04:03:41.960Z,7.20
2022-11-06T04:05:18.234Z,7.16
2022-11-06T04:06:58.662Z,7.20
2022-11-06T04:10:29.322Z,7.22
2022-11-06T04:12:22.554Z,7.23
2022-11-06T04:13:58.530Z,7.27
2022-11-06T04:15:33.662Z,7.28
2022-11-06T04:17:08.181Z,7.30
2022-11-06T04:18:41.421Z,7.33
2022-11-06T04:20:36.830Z,7.37
2022-11-06T04:22:43.791Z,7.45
2022-11-06T04:25:02.199Z,7.49
2022-11-06T04:26:43.283Z,7.49
2022-11-06T04:28:33.213Z,7.55
2022-11-06T04:30:10.004Z,7.57
2022-11-06T04:32:03.945Z,7.64
2022-11-06T04:34:01.856Z,7.66
2022-11-06T04:36:11.387Z,7.72
2022-11-06T04:38:01.341Z,7.71
2022-11-06T04:39:54.279Z,7.73
2022-11-06T04:41:34.861Z,7.68
2022-11-06T04:44:52.039Z,7.71
2022-11-06T04:46:27.593Z,7.70
2022-11-06T04:48:00.516Z,7.68
2022-11-06T04:49:34.565Z,7.72
2022-11-06T04:51:09.547Z,7.75
2022-11-06T04:52:42.124Z,7.70
2022-11-06T04:54:14.987Z,7.68
2022-11-06T04:56:00.558Z,7.73
2022-11-06T04:57:32.561Z,7.72
2022-11-06T04:59:05.831Z,7.75
2022-11-06T05:00:40.032Z,7.78
2022-11-06T05:02:12.177Z,7.76
2022-11-06T05:03:44.341Z,7.77
2022-11-06T05:05:19.457Z,7.80
2022-11-06T05:06:51.488Z,7.81
2022-11-06T05:08:23.597Z,7.83
2022-11-06T05:09:55.531Z,7.84
2022-11-06T05:11:27.556Z,7.88
2022-11-06T05:14:33.854Z,7.91
2022-11-06T05:16:06.349Z,7.97
2022-11-06T05:17:38.373Z,8.01
2022-11-06T05:19:10.677Z,8.03
2022-11-06T05:20:42.715Z,8.07
2022-11-06T05:22:33.370Z,8.11
2022-11-06T05:24:05.978Z,8.18
2022-11-06T05:25:40.382Z,8.23
2022-11-06T05:27:12.347Z,8.24
2022-11-06T05:28:44.534Z,8.27
2022-11-06T05:30:16.899Z,8.31
2022-11-06T05:31:49.023Z,8.35
2022-11-06T05:33:21.205Z,8.36
2022-11-06T05:34:53.195Z,8.37
2022-11-06T05:36:25.481Z,8.37
2022-11-06T05:38:03.949Z,8.44
2022-11-06T05:39:41.385Z,8.41
2022-11-06T05:41:14.033Z,8.45
2022-11-06T05:42:46.241Z,8.47
2022-11-06T05:44:18.225Z,8.51
2022-11-06T05:45:50.571Z,8.59
2022-11-06T05:47:22.616Z,8.66
2022-11-06T05:48:54.836Z,8.71
2022-11-06T05:50:26.813Z,8.76
2022-11-06T05:51:59.074Z,8.77
2022-11-06T05:53:32.358Z,8.87
2022-11-06T05:55:08.830Z,8.90
2022-11-06T05:56:45.075Z,8.93
2022-11-06T05:59:49.073Z,8.88
2022-11-06T06:01:21.239Z,9.01
2022-11-06T06:02:53.515Z,9.07
2022-11-06T06:04:26.029Z,9.07
2022-11-06T06:06:00.529Z,9.15
2022-11-06T06:07:33.094Z,9.16
2022-11-06T06:09:05.525Z,9.18
2022-11-06T06:10:41.712Z,9.23
2022-11-06T06:12:14.242Z,9.26
2022-11-06T06:13:46.475Z,9.28
2022-11-06T06:15:19.050Z,9.30
2022-11-06T06:16:51.237Z,9.36
2022-11-06T06:18:26.042Z,9.43
2022-11-06T06:19:58.529Z,9.44
2022-11-06T06:21:30.920Z,9.50
2022-11-06T06:23:03.555Z,9.54
2022-11-06T06:24:35.951Z,9.57
2022-11-06T06:26:08.301Z,9.63
2022-11-06T06:27:40.355Z,9.66
2022-11-06T06:29:12.641Z,9.66
2022-11-06T06:30:44.803Z,9.73
2022-11-06T06:32:16.908Z,9.75
2022-11-06T06:33:49.062Z,9.81
2022-11-06T06:35:21.604Z,9.84
2022-11-06T06:36:54.837Z,9.87
2022-11-06T06:38:27.081Z,9.89
2022-11-06T06:40:00.343Z,9.95
2022-11-06T06:41:32.604Z,9.96
2022-11-06T06:43:04.719Z,9.99
2022-11-06T06:44:37.237Z,10.02
2022-11-06T06:46:09.783Z,10.06
2022-11-06T06:47:42.150Z,10.09
2022-11-06T06:49:14.299Z,10.11
2022-11-06T06:50:46.606Z,10.13
2022-11-06T06:52:18.841Z,10.15
2022-11-06T06:53:51.096Z,10.19
2022-11-06T06:55:23.370Z,10.22
2022-11-06T06:56:55.461Z,10.24
2022-11-06T06:58:28.475Z,10.26
2022-11-06T07:00:00.767Z,10.29
2022-11-06T07:01:33.011Z,10.30
2022-11-06T07:03:05.418Z,10.33
2022-11-06T07:04:37.656Z,10.33
2022-11-06T07:06:12.805Z,10.37
2022-11-06T07:07:44.917Z,10.39
2022-11-06T07:09:16.990Z,10.40
2022-11-06T07:10:49.148Z,10.41
2022-11-06T07:12:21.482Z,10.45
2022-11-06T07:13:53.750Z,10.48
2022-11-06T07:15:25.856Z,10.50
2022-11-06T07:16:58.303Z,10.52
2022-11-06T07:18:30.573Z,10.52
2022-11-06T07:20:02.883Z,10.53
2022-11-06T07:21:35.079Z,10.55
2022-11-06T07:23:08.458Z,10.54
2022-11-06T07:24:43.675Z,10.61
2022-11-06T07:26:18.593Z,10.57
2022-11-06T07:27:50.721Z,10.60
2022-11-06T07:29:23.845Z,10.64
2022-11-06T07:31:04.078Z,10.67
2022-11-06T07:34:08.185Z,10.69
2022-11-06T07:35:40.445Z,10.72
2022-11-06T07:37:12.572Z,10.73
2022-11-06T07:38:44.995Z,10.74
2022-11-06T07:40:17.410Z,10.79
2022-11-06T07:41:49.701Z,10.79
2022-11-06T07:43:22.092Z,10.83
2022-11-06T07:44:55.922Z,10.87
2022-11-06T07:46:28.205Z,10.89
2022-11-06T07:48:00.689Z,10.92
2022-11-06T07:49:32.968Z,10.94
2022-11-06T07:51:06.954Z,10.99
2022-11-06T07:52:39.201Z,10.99
2022-11-06T07:54:12.590Z,11.02
2022-11-06T07:55:54.370Z,11.08
2022-11-06T07:57:26.766Z,11.08
2022-11-06T07:58:59.015Z,11.07
2022-11-06T08:00:31.309Z,11.13
2022-11-06T08:03:43.142Z,11.24
2022-11-06T08:05:15.639Z,11.27
2022-11-06T08:06:47.737Z,11.30
2022-11-06T08:08:20.064Z,11.33
2022-11-06T08:09:52.466Z,11.38
2022-11-06T08:11:24.918Z,11.42
2022-11-06T08:12:57.000Z,11.46
2022-11-06T08:14:29.216Z,11.53
2022-11-06T08:16:08.285Z,11.64
2022-11-06T08:17:40.759Z,11.66
2022-11-06T08:19:13.690Z,11.73
2022-11-06T08:20:45.860Z,11.80
2022-11-06T08:22:19.472Z,11.84
2022-11-06T08:23:51.795Z,11.87
2022-11-06T08:25:23.937Z,11.92
2022-11-06T08:26:56.367Z,11.97
2022-11-06T08:28:29.018Z,11.95
2022-11-06T08:30:01.255Z,12.02
2022-11-06T08:31:33.560Z,12.06
2022-11-06T08:33:09.445Z,12.15
2022-11-06T08:34:42.717Z,12.19
2022-11-06T08:36:15.119Z,12.24
2022-11-06T08:37:47.285Z,12.28
2022-11-06T08:39:19.445Z,12.32
2022-11-06T08:40:53.832Z,12.36
2022-11-06T08:42:26.376Z,12.38
2022-11-06T08:43:59.093Z,12.42
2022-11-06T08:45:31.411Z,12.41
2022-11-06T08:47:03.776Z,12.45
2022-11-06T08:48:38.965Z,12.51
2022-11-06T08:50:11.375Z,12.57
2022-11-06T08:51:43.615Z,12.60
2022-11-06T08:53:16.125Z,12.65
2022-11-06T08:54:48.653Z,12.70
2022-11-06T08:56:20.817Z,12.75
2022-11-06T08:57:55.828Z,12.84
2022-11-06T08:59:28.286Z,12.83
2022-11-06T09:01:11.320Z,12.78
2022-11-06T09:02:43.690Z,12.85
2022-11-06T09:04:17.558Z,12.88
2022-11-06T09:05:49.754Z,12.91
2022-11-06T09:07:21.945Z,12.96
2022-11-06T09:08:55.901Z,13.00
2022-11-06T09:10:28.694Z,13.03
2022-11-06T09:12:02.070Z,13.03
2022-11-06T09:13:34.399Z,13.14
2022-11-06T09:15:07.222Z,13.14
2022-11-06T09:16:39.510Z,13.15
2022-11-06T09:18:14.961Z,13.19
2022-11-06T09:19:47.042Z,13.24
2022-11-06T09:21:19.427Z,13.21
2022-11-06T09:22:52.478Z,13.25
2022-11-06T09:24:43.617Z,13.25
2022-11-06T09:26:17.370Z,13.30
2022-11-06T09:27:58.462Z,13.36
2022-11-06T09:29:31.669Z,13.34
2022-11-06T09:32:35.849Z,13.38
2022-11-06T09:34:08.131Z,13.44
2022-11-06T09:35:40.470Z,13.45
2022-11-06T09:37:12.684Z,13.45
2022-11-06T09:38:44.873Z,13.48
2022-11-06T09:40:29.444Z,13.55
2022-11-06T09:42:07.370Z,13.57
2022-11-06T09:45:40.372Z,13.64
2022-11-06T09:47:19.589Z,13.67
2022-11-06T09:49:04.390Z,13.68
2022-11-06T09:50:41.140Z,13.73
2022-11-06T09:52:33.572Z,13.74
2022-11-06T09:54:15.899Z,13.76
2022-11-06T09:55:50.920Z,13.77
2022-11-06T09:57:34.873Z,13.79
2022-11-06T09:59:08.245Z,13.84
2022-11-06T10:00:41.920Z,13.83
2022-11-06T10:02:28.037Z,13.86
2022-11-06T10:04:01.433Z,13.85
2022-11-06T10:05:39.973Z,13.92
2022-11-06T10:07:30.135Z,13.93
2022-11-06T10:09:04.567Z,13.95
2022-11-06T10:10:58.369Z,14.00
2022-11-06T10:12:54.059Z,14.03
2022-11-06T10:14:34.996Z,13.98
2022-11-06T10:16:36.679Z,14.06
2022-11-06T10:18:27.561Z,14.08
2022-11-06T10:20:27.143Z,14.11
2022-11-06T10:22:08.711Z,14.10
2022-11-06T10:23:50.264Z,14.10
2022-11-06T10:25:50.537Z,14.11
2022-11-06T10:27:31.848Z,14.17
2022-11-06T10:29:41.499Z,14.19
2022-11-06T10:31:38.907Z,14.23
2022-11-06T10:33:14.470Z,14.20
2022-11-06T10:35:01.085Z,14.25
2022-11-06T10:36:37.124Z,14.24
2022-11-06T10:38:31.765Z,14.25
2022-11-06T10:40:06.179Z,14.25
2022-11-06T10:41:39.706Z,14.25
2022-11-06T10:44:02.708Z,14.30
2022-11-06T10:45:35.316Z,14.29
2022-11-06T10:47:17.305Z,14.28
2022-11-06T10:49:03.904Z,14.31
2022-11-06T10:51:08.183Z,14.34
2022-11-06T10:53:01.412Z,14.33
2022-11-06T10:55:10.621Z,14.33
2022-11-06T10:57:13.624Z,14.35
2022-11-06T10:58:45.860Z,14.30
2022-11-06T11:00:18.415Z,14.31
2022-11-06T11:01:50.832Z,14.30
2022-11-06T11:03:33.100Z,14.35
2022-11-06T11:05:13.337Z,14.37
2022-11-06T11:06:45.752Z,14.34
2022-11-06T11:08:37.740Z,14.41
2022-11-06T11:10:32.308Z,14.41
2022-11-06T11:12:04.940Z,14.35
2022-11-06T11:13:37.351Z,14.37
2022-11-06T11:15:20.501Z,14.41
2022-11-06T11:16:53.293Z,14.39
2022-11-06T11:18:31.790Z,14.41
2022-11-06T11:20:05.743Z,14.37
2022-11-06T11:21:37.937Z,14.35
2022-11-06T11:23:20.613Z,14.30
2022-11-06T11:25:07.266Z,14.35
2022-11-06T11:27:01.626Z,14.33
2022-11-06T11:28:34.232Z,14.33
2022-11-06T11:30:07.137Z,14.30
2022-11-06T11:31:39.597Z,14.28
2022-11-06T11:33:13.843Z,14.31
2022-11-06T11:36:18.056Z,14.33
2022-11-06T11:37:50.500Z,14.32
2022-11-06T11:39:26.476Z,14.37
2022-11-06T11:41:08.544Z,14.42
2022-11-06T11:42:40.875Z,14.40
2022-11-06T11:44:17.459Z,14.41
2022-11-06T11:46:06.396Z,14.45
2022-11-06T11:47:40.769Z,14.44
2022-11-06T11:49:30.511Z,14.45
2022-11-06T11:51:17.257Z,14.47
2022-11-06T11:52:51.809Z,14.46
2022-11-06T11:54:27.452Z,14.46
2022-11-06T11:56:00.032Z,14.44
2022-11-06T11:57:32.454Z,14.43
2022-11-06T11:59:04.971Z,14.43
2022-11-06T12:00:37.409Z,14.47
2022-11-06T12:02:25.275Z,14.52
2022-11-06T12:04:00.539Z,14.47
2022-11-06T12:05:39.291Z,14.52
2022-11-06T12:07:28.144Z,14.48
2022-11-06T12:09:02.945Z,14.29
2022-11-06T12:10:40.308Z,14.26
2022-11-06T12:12:21.392Z,14.34
2022-11-06T12:14:23.028Z,14.32
2022-11-06T12:16:03.443Z,14.32
2022-11-06T12:17:38.358Z,14.34
2022-11-06T12:20:50.646Z,14.46
2022-11-06T12:22:32.611Z,14.53
2022-11-06T12:24:11.400Z,14.55
2022-11-06T12:25:45.220Z,14.56
2022-11-06T12:27:30.379Z,14.63
2022-11-06T12:29:09.488Z,14.65
2022-11-06T12:30:44.377Z,14.67
2022-11-06T12:32:25.408Z,14.71
2022-11-06T12:34:06.082Z,14.70
2022-11-06T12:35:42.889Z,14.77
2022-11-06T12:37:34.494Z,14.81
2022-11-06T12:39:22.354Z,14.84
2022-11-06T12:41:07.663Z,14.84
2022-11-06T12:42:40.498Z,14.83
2022-11-06T12:44:14.458Z,14.87
2022-11-06T12:46:11.839Z,14.93
2022-11-06T12:47:54.541Z,14.94
2022-11-06T12:49:45.182Z,14.92
2022-11-06T12:51:31.545Z,15.00
2022-11-06T12:53:18.016Z,15.02
2022-11-06T12:55:12.511Z,15.03
2022-11-06T12:57:19.860Z,15.06
2022-11-06T12:59:00.480Z,15.08
2022-11-06T13:00:40.909Z,15.08
2022-11-06T13:02:46.331Z,15.13
2022-11-06T14:19:50.260Z,14.83
2022-11-06T14:21:38.757Z,14.84
2022-11-06T14:23:29.305Z,14.81
2022-11-06T14:25:02.486Z,14.74
2022-11-06T14:26:41.789Z,14.79
2022-11-06T14:28:35.640Z,14.75
2022-11-06T14:30:57.445Z,14.74
2022-11-06T14:32:32.303Z,14.75
2022-11-06T14:34:04.699Z,14.69
2022-11-06T14:35:37.042Z,14.67
2022-11-06T14:37:18.423Z,14.72
2022-11-06T14:38:51.881Z,14.69
2022-11-06T14:40:31.570Z,14.74
2022-11-06T14:42:04.940Z,14.72
2022-11-06T14:43:36.917Z,14.75
2022-11-06T14:45:09.231Z,14.68
2022-11-06T14:46:50.591Z,14.71
2022-11-06T14:48:31.722Z,14.70
2022-11-06T14:50:29.222Z,14.68
2022-11-06T14:52:05.213Z,14.66
2022-11-06T14:53:49.716Z,14.66
2022-11-06T14:55:32.725Z,14.65
2022-11-06T14:57:05.442Z,14.63
2022-11-06T14:58:40.562Z,14.63
2022-11-06T15:00:14.945Z,14.63
2022-11-06T15:02:01.271Z,14.63
2022-11-06T15:03:38.004Z,14.59
2022-11-06T15:05:18.253Z,14.62
2022-11-06T15:06:51.891Z,14.61
2022-11-06T15:08:45.853Z,14.61
2022-11-06T15:10:42.365Z,14.61
2022-11-06T15:12:14.652Z,14.54
2022-11-06T15:13:46.778Z,14.51
2022-11-06T15:15:19.498Z,14.50
2022-11-06T15:16:55.600Z,14.54
2022-11-06T15:18:28.660Z,14.48
2022-11-06T15:20:07.358Z,14.49
2022-11-06T15:21:48.632Z,14.49
2022-11-06T15:24:56.517Z,14.41
2022-11-06T15:26:38.491Z,14.43
2022-11-06T15:28:16.661Z,14.41
2022-11-06T15:29:52.725Z,14.39
2022-11-06T15:31:25.664Z,14.37
2022-11-06T15:32:58.215Z,14.34
2022-11-06T15:34:34.088Z,14.35
2022-11-06T15:36:08.608Z,14.34
2022-11-06T15:37:46.733Z,14.32
2022-11-06T15:39:34.556Z,14.29
2022-11-06T15:41:08.834Z,14.27
2022-11-06T15:42:41.832Z,14.24
2022-11-06T15:44:14.069Z,14.20
2022-11-06T15:45:46.265Z,14.16
2022-11-06T15:47:29.785Z,14.15
2022-11-06T15:49:08.595Z,14.12
2022-11-06T15:50:43.241Z,14.09
2022-11-06T15:52:19.185Z,14.07
2022-11-06T15:53:51.351Z,13.97
2022-11-06T15:55:28.210Z,13.98
2022-11-06T15:57:20.857Z,13.95
2022-11-06T15:59:08.381Z,13.92
2022-11-06T16:00:42.002Z,13.88
2022-11-06T16:02:22.875Z,13.88
2022-11-06T16:03:55.878Z,13.83
2022-11-06T16:05:30.231Z,13.83
2022-11-06T16:07:03.028Z,13.79
2022-11-06T16:08:35.417Z,13.80
2022-11-06T16:10:09.001Z,13.80
2022-11-06T16:11:41.392Z,13.77
2022-11-06T16:13:15.736Z,13.77
2022-11-06T16:14:48.373Z,13.75
2022-11-06T16:16:43.104Z,13.76
2022-11-06T16:18:17.205Z,13.71
2022-11-06T16:19:50.003Z,13.70
2022-11-06T16:21:24.810Z,13.69
2022-11-06T16:22:57.030Z,13.65
2022-11-06T16:24:32.374Z,13.65
2022-11-06T16:26:16.232Z,13.63
2022-11-06T16:27:48.536Z,13.64
2022-11-06T16:29:27.759Z,13.60
2022-11-06T16:31:06.885Z,13.54
2022-11-06T16:32:41.823Z,13.54
2022-11-06T16:34:30.603Z,13.51
2022-11-06T16:36:11.720Z,13.46
2022-11-06T16:37:43.853Z,13.42
2022-11-06T16:39:40.059Z,13.44
2022-11-06T16:41:42.969Z,13.40
2022-11-06T16:43:17.168Z,13.36
2022-11-06T16:44:51.476Z,13.33
2022-11-06T16:46:23.652Z,13.30
2022-11-06T16:48:08.009Z,13.31
2022-11-06T16:49:44.960Z,13.28
2022-11-06T16:51:31.597Z,13.22
2022-11-06T16:53:03.945Z,13.13
2022-11-06T16:54:39.011Z,13.15
2022-11-06T16:56:11.498Z,13.10
2022-11-06T16:59:27.600Z,13.14
2022-11-06T17:01:05.704Z,13.15
2022-11-06T17:02:39.070Z,13.11
2022-11-06T17:04:21.398Z,13.11
2022-11-06T17:05:59.710Z,13.11
2022-11-06T17:07:31.880Z,13.06
2022-11-06T17:09:32.475Z,13.08
2022-11-06T17:11:13.449Z,13.05
2022-11-06T17:12:45.740Z,12.97
2022-11-06T17:14:20.395Z,12.96
2022-11-06T17:16:14.512Z,12.90
2022-11-06T17:17:46.675Z,12.81
2022-11-06T17:19:19.849Z,12.77
2022-11-06T17:20:54.675Z,12.74
2022-11-06T17:22:26.884Z,12.68
2022-11-06T17:24:12.115Z,12.65
2022-11-06T17:25:52.105Z,12.59
2022-11-06T17:27:24.376Z,12.56
2022-11-06T17:29:00.396Z,12.56
2022-11-06T17:30:32.605Z,12.49
2022-11-06T17:32:05.380Z,12.46
2022-11-06T17:33:37.790Z,12.38
2022-11-06T17:35:10.135Z,12.33
2022-11-06T17:36:42.465Z,12.29
2022-11-06T17:38:15.388Z,12.23
2022-11-06T17:39:47.754Z,12.18
2022-11-06T17:41:32.820Z,12.11
2022-11-06T17:43:05.004Z,12.04
2022-11-06T17:44:37.389Z,12.02
2022-11-06T17:46:13.725Z,11.99
2022-11-06T17:47:46.169Z,11.91
2022-11-06T17:49:19.001Z,11.89
2022-11-06T17:51:09.951Z,11.84
2022-11-06T17:52:42.284Z,11.77
2022-11-06T17:54:14.887Z,11.72
2022-11-06T17:55:47.024Z,11.66
2022-11-06T17:57:23.866Z,11.64
2022-11-06T17:58:56.493Z,11.59
2022-11-06T18:00:28.648Z,11.57
2022-11-06T18:02:01.487Z,11.54
2022-11-06T18:03:36.690Z,11.45
2022-11-06T18:05:09.952Z,11.44
2022-11-06T18:06:44.952Z,11.41
2022-11-06T18:08:17.441Z,11.36
2022-11-06T18:09:50.150Z,11.32
2022-11-06T18:11:22.359Z,11.29
2022-11-06T18:12:54.533Z,11.25
2022-11-06T18:14:28.509Z,11.26
2022-11-06T18:16:01.312Z,11.23
2022-11-06T18:17:33.486Z,11.17
2022-11-06T18:19:09.890Z,11.23
2022-11-06T18:20:48.312Z,11.23
2022-11-06T18:22:20.596Z,11.19
2022-11-06T18:23:53.178Z,11.17
2022-11-06T18:25:25.514Z,11.17
2022-11-06T18:26:57.620Z,11.17
2022-11-06T18:28:29.895Z,11.14
2022-11-06T18:30:02.122Z,11.12
2022-11-06T18:31:35.265Z,11.13
2022-11-06T18:33:07.548Z,11.12
2022-11-06T18:34:39.691Z,11.10
2022-11-06T18:36:12.736Z,11.10
2022-11-06T18:37:44.830Z,11.06
2022-11-06T18:39:17.062Z,11.04
2022-11-06T18:40:51.791Z,11.03
2022-11-06T18:42:24.393Z,11.06
2022-11-06T18:43:58.220Z,11.07
2022-11-06T18:45:30.745Z,11.04
2022-11-06T18:47:03.080Z,11.01
2022-11-06T18:48:35.436Z,11.00
2022-11-06T18:50:08.415Z,11.01
2022-11-06T18:51:41.058Z,10.99
2022-11-06T18:53:14.200Z,10.99
2022-11-06T18:54:46.320Z,10.97
2022-11-06T18:56:19.035Z,10.99
2022-11-06T18:57:51.401Z,10.99
2022-11-06T18:59:28.140Z,10.98
2022-11-06T19:01:08.136Z,11.03
2022-11-06T19:02:40.918Z,11.01
2022-11-06T19:04:13.677Z,11.02
2022-11-06T19:05:51.532Z,11.01
2022-11-06T19:07:23.590Z,10.99
2022-11-06T19:08:55.737Z,11.01
2022-11-06T19:10:29.889Z,11.02
2022-11-06T19:12:02.114Z,11.05
2022-11-06T19:13:35.535Z,11.06
2022-11-06T19:15:07.773Z,11.18
2022-11-06T19:16:39.836Z,11.13
2022-11-06T19:18:15.571Z,11.16
2022-11-06T19:19:47.896Z,11.12
2022-11-06T19:21:20.168Z,11.09
2022-11-06T19:22:53.069Z,11.10
2022-11-06T19:24:26.735Z,11.02
2022-11-06T19:26:10.661Z,11.07
2022-11-06T19:27:55.730Z,11.08
2022-11-06T19:29:30.686Z,11.05
2022-11-06T19:31:03.138Z,10.99
2022-11-06T19:32:35.260Z,10.96
2022-11-06T19:34:08.585Z,10.95
2022-11-06T19:35:40.729Z,10.92
2022-11-06T19:37:13.189Z,10.93
2022-11-06T19:38:45.488Z,10.87
2022-11-06T19:40:20.283Z,10.84
2022-11-06T19:41:52.645Z,10.82
2022-11-06T19:43:24.760Z,10.81
2022-11-06T19:44:56.886Z,10.82
2022-11-06T19:46:35.227Z,10.81
2022-11-06T19:48:08.179Z,10.79
2022-11-06T19:49:40.246Z,10.76
2022-11-06T19:51:13.881Z,10.80
2022-11-06T19:52:53.405Z,10.81
2022-11-06T19:55:57.685Z,10.77
2022-11-06T19:57:30.586Z,10.74
2022-11-06T19:59:03.270Z,10.69
2022-11-06T20:00:35.466Z,10.62
2022-11-06T20:02:07.887Z,10.58
2022-11-06T20:03:40.111Z,10.51
2022-11-06T20:05:12.125Z,10.48
2022-11-06T20:06:44.406Z,10.43
2022-11-06T20:08:16.489Z,10.42
2022-11-06T20:09:48.575Z,10.41
2022-11-06T20:11:20.787Z,10.43
2022-11-06T20:12:52.916Z,10.44
2022-11-06T20:14:25.352Z,10.47
2022-11-06T20:15:58.007Z,10.52
2022-11-06T20:17:30.155Z,10.54
2022-11-06T20:19:02.765Z,10.58
2022-11-06T20:20:36.580Z,10.56
2022-11-06T20:22:08.870Z,10.55
2022-11-06T20:23:41.022Z,10.53
2022-11-06T20:25:13.294Z,10.52
2022-11-06T20:26:45.415Z,10.50
2022-11-06T20:28:17.433Z,10.49
2022-11-06T20:29:49.975Z,10.46
2022-11-06T20:31:23.419Z,10.42
2022-11-06T20:32:55.488Z,10.45
2022-11-06T20:34:27.539Z,10.44
2022-11-06T20:35:59.778Z,10.47
2022-11-06T20:37:32.597Z,10.50
2022-11-06T20:39:05.098Z,10.51
2022-11-06T20:40:37.168Z,10.53
2022-11-06T20:42:09.628Z,10.57
2022-11-06T20:43:42.483Z,10.58
2022-11-06T20:45:14.595Z,10.57
2022-11-06T20:46:47.893Z,10.56
2022-11-06T20:48:20.049Z,10.63
2022-11-06T20:49:53.111Z,10.58
2022-11-06T20:51:27.539Z,10.60
2022-11-06T20:52:59.871Z,10.60
2022-11-06T20:56:12.270Z,10.64
2022-11-06T20:57:44.318Z,10.62
2022-11-06T20:59:18.123Z,10.62
2022-11-06T21:00:50.251Z,10.63
2022-11-06T21:02:22.527Z,10.63
2022-11-06T21:03:55.397Z,10.64
2022-11-06T21:05:27.542Z,10.65
2022-11-06T21:06:59.654Z,10.66
2022-11-06T21:08:37.086Z,10.69
2022-11-06T21:10:11.318Z,10.70
2022-11-06T21:11:43.513Z,10.70
2022-11-06T21:13:15.837Z,10.71
2022-11-06T21:14:48.304Z,10.75
2022-11-06T21:16:32.076Z,10.79
2022-11-06T21:18:04.350Z,10.80
2022-11-06T21:19:37.257Z,10.82
2022-11-06T21:21:12.612Z,10.83
2022-11-06T21:22:47.577Z,10.88
2022-11-06T21:24:19.703Z,10.87
2022-11-06T21:25:51.861Z,10.90
2022-11-06T21:27:23.997Z,10.93
2022-11-06T21:28:56.495Z,10.94
2022-11-06T21:30:28.500Z,10.97
2022-11-06T21:32:00.553Z,10.99
2022-11-06T21:33:32.524Z,11.00
2022-11-06T21:35:04.828Z,11.00
2022-11-06T21:36:37.804Z,10.99
2022-11-06T21:38:09.803Z,10.98
2022-11-06T21:39:41.904Z,10.96
2022-11-06T21:41:16.836Z,10.96
2022-11-06T21:42:48.847Z,10.90
2022-11-06T21:44:20.855Z,10.87
2022-11-06T21:45:52.896Z,10.86
2022-11-06T21:47:26.208Z,10.91
2022-11-06T21:48:58.687Z,10.90
2022-11-06T21:50:30.993Z,10.88
2022-11-06T21:52:28.036Z,10.90
2022-11-06T21:55:59.226Z,10.83
2022-11-06T21:57:31.220Z,10.87
2022-11-06T21:59:05.288Z,10.87
2022-11-06T22:00:40.577Z,10.80
2022-11-06T22:02:13.373Z,10.73
2022-11-06T22:03:45.969Z,10.69
2022-11-06T22:05:18.620Z,10.67
2022-11-06T22:06:52.715Z,10.66
2022-11-06T22:08:28.331Z,10.66
2022-11-06T22:10:02.882Z,10.67
2022-11-06T22:11:37.551Z,10.68
2022-11-06T22:13:09.721Z,10.66
2022-11-06T22:14:41.851Z,10.63
2022-11-06T22:16:15.600Z,10.63
2022-11-06T22:17:47.668Z,10.62
2022-11-06T22:19:19.969Z,10.59
2022-11-06T22:20:52.237Z,10.57
2022-11-06T22:22:24.400Z,10.54
2022-11-06T22:23:56.965Z,10.55
2022-11-06T22:25:29.220Z,10.56
2022-11-06T22:27:01.264Z,10.58
2022-11-06T22:28:34.347Z,10.65
2022-11-06T22:30:07.060Z,10.67
2022-11-06T22:31:39.505Z,10.69
2022-11-06T22:33:14.357Z,10.68
2022-11-06T22:34:46.543Z,10.66
2022-11-06T22:36:20.340Z,10.73
2022-11-06T22:37:52.381Z,10.73
2022-11-06T22:39:24.571Z,10.76
2022-11-06T22:40:58.351Z,10.76
2022-11-06T22:42:30.498Z,10.77
2022-11-06T22:44:02.964Z,10.78
2022-11-06T22:45:35.279Z,10.81
2022-11-06T22:47:07.488Z,10.82